Time;durP1;ratioP1;P1;durP2;ratioP2;P2;SDS_P1;SDS_P2;PMS_P1;PMS_P2;Temp;Humidity;BMP_temperature;BMP_pressure;BME280_temperature;BME280_humidity;BME280_pressure;Samples;Min_cycle;Max_cycle;Signal;HPM_P1;HPM_P2
2021/07/11 00:00:42;;;;;;;11.13;9.82;;;;;;;25.59;100.00;100934.47;5099584;28;20034;-77
2021/07/11 00:03:28;;;;;;;17.67;9.77;;;;;;;25.62;100.00;100930.69;5114570;28;20106;-77
2021/07/11 00:06:14;;;;;;;18.08;10.40;;;;;;;25.23;100.00;100931.84;5101970;28;20023;-77
2021/07/11 00:08:59;;;;;;;16.25;9.85;;;;;;;25.38;100.00;100929.88;5101249;28;20055;-77
2021/07/11 00:11:45;;;;;;;14.82;10.35;;;;;;;25.48;100.00;100929.06;5114831;28;20055;-77
2021/07/11 00:14:31;;;;;;;13.15;9.60;;;;;;;25.63;100.00;100925.22;5114674;28;20030;-77
2021/07/11 00:17:17;;;;;;;12.10;9.65;;;;;;;25.66;100.00;100921.44;5114310;28;20098;-77
2021/07/11 00:20:05;;;;;;;22.70;10.45;;;;;;;25.63;100.00;100924.38;5100326;28;20106;-77
2021/07/11 00:22:51;;;;;;;13.98;10.27;;;;;;;25.30;100.00;100932.28;5115083;28;20450;-77
2021/07/11 00:25:37;;;;;;;13.32;10.02;;;;;;;25.22;100.00;100923.91;5114157;28;20088;-77
2021/07/11 00:28:22;;;;;;;11.93;9.57;;;;;;;25.42;100.00;100932.22;5115001;28;20077;-77
2021/07/11 00:31:08;;;;;;;17.88;10.57;;;;;;;25.42;100.00;100920.63;5114857;28;20028;-77
2021/07/11 00:33:54;;;;;;;19.33;10.23;;;;;;;25.39;100.00;100923.56;5115242;28;20034;-77
2021/07/11 00:36:40;;;;;;;12.80;9.30;;;;;;;25.05;100.00;100916.25;5114608;28;20065;-77
2021/07/11 00:39:26;;;;;;;15.32;9.80;;;;;;;25.24;100.00;100916.63;5114581;28;20134;-77
2021/07/11 00:42:13;;;;;;;14.88;10.00;;;;;;;25.36;100.00;100913.06;5115104;28;20019;-77
2021/07/11 00:44:59;;;;;;;13.95;10.55;;;;;;;25.24;100.00;100911.25;5113376;28;20111;-77
2021/07/11 00:47:45;;;;;;;13.70;10.43;;;;;;;25.30;100.00;100908.13;5114084;28;20034;-77
2021/07/11 00:50:31;;;;;;;16.83;10.70;;;;;;;25.31;100.00;100907.19;5099887;28;20401;-77
2021/07/11 00:53:17;;;;;;;15.80;10.65;;;;;;;25.45;100.00;100910.53;5112600;28;20058;-77
2021/07/11 00:56:02;;;;;;;19.17;11.00;;;;;;;25.23;100.00;100910.38;5113685;28;20043;-77
2021/07/11 00:58:48;;;;;;;14.13;11.20;;;;;;;25.10;100.00;100911.41;5114457;28;20051;-77
2021/07/11 01:01:38;;;;;;;15.90;11.40;;;;;;;25.14;100.00;100896.81;5114504;28;20068;-77
2021/07/11 01:04:52;;;;;;;15.20;11.02;;;;;;;24.81;100.00;100896.63;5113361;28;20447;-77
2021/07/11 01:08:00;;;;;;;16.77;10.98;;;;;;;25.08;100.00;100898.13;5114153;28;20020;-77
2021/07/11 01:10:57;;;;;;;15.52;11.23;;;;;;;25.30;100.00;100905.44;5099851;28;20441;-77
2021/07/11 01:13:46;;;;;;;19.52;11.43;;;;;;;25.24;100.00;100900.53;5117761;28;20106;-77
2021/07/11 01:16:34;;;;;;;19.55;11.15;;;;;;;25.13;100.00;100898.66;5117844;28;20345;-77
2021/07/11 01:19:29;;;;;;;15.50;10.95;;;;;;;25.27;100.00;100897.63;5117934;28;20031;-77
2021/07/11 01:22:19;;;;;;;17.27;11.85;;;;;;;24.93;100.00;100896.59;5117163;28;20106;-76
2021/07/11 01:25:08;;;;;;;19.25;12.73;;;;;;;25.00;100.00;100887.09;5116587;28;20039;-77
2021/07/11 01:27:55;;;;;;;17.23;12.65;;;;;;;25.03;100.00;100891.41;5103971;28;20477;-78
2021/07/11 01:30:42;;;;;;;19.85;12.60;;;;;;;24.77;100.00;100885.28;5117581;28;20027;-77
2021/07/11 01:33:31;;;;;;;16.35;12.60;;;;;;;24.78;100.00;100886.97;5104258;28;20035;-77
2021/07/11 01:36:17;;;;;;;20.60;13.20;;;;;;;25.03;100.00;100899.44;5117721;28;20030;-78
2021/07/11 01:39:04;;;;;;;18.25;12.10;;;;;;;24.54;100.00;100894.09;5116854;28;20027;-78
2021/07/11 01:41:50;;;;;;;17.55;12.70;;;;;;;24.74;100.00;100895.34;5118239;28;20088;-77
2021/07/11 01:44:36;;;;;;;15.57;11.77;;;;;;;24.78;100.00;100894.16;5115788;28;20333;-77
2021/07/11 01:47:22;;;;;;;17.75;11.55;;;;;;;25.05;100.00;100890.31;5103720;28;20027;-77
2021/07/11 01:50:10;;;;;;;18.10;11.85;;;;;;;25.13;100.00;100901.34;5118481;28;20016;-76
2021/07/11 01:52:56;;;;;;;21.40;12.32;;;;;;;24.89;100.00;100897.78;5117534;28;20019;-76
2021/07/11 01:55:43;;;;;;;18.48;11.95;;;;;;;24.75;100.00;100897.09;5102850;28;20035;-76
2021/07/11 01:58:29;;;;;;;18.95;11.88;;;;;;;24.56;100.00;100902.03;5117186;28;20055;-76
2021/07/11 02:01:16;;;;;;;25.15;12.07;;;;;;;24.63;100.00;100906.84;5116856;28;20034;-76
2021/07/11 02:04:02;;;;;;;16.70;11.25;;;;;;;24.44;100.00;100905.59;5118038;28;20028;-76
2021/07/11 02:06:48;;;;;;;22.45;12.88;;;;;;;24.62;100.00;100912.31;5103349;28;20030;-77
2021/07/11 02:09:34;;;;;;;18.95;12.10;;;;;;;24.65;100.00;100907.63;5117034;28;20019;-76
2021/07/11 02:12:23;;;;;;;15.75;12.60;;;;;;;24.26;100.00;100914.94;5117518;28;20046;-76
2021/07/11 02:15:09;;;;;;;17.15;12.43;;;;;;;24.68;100.00;100917.25;5103494;28;20483;-76
2021/07/11 02:17:56;;;;;;;20.38;12.93;;;;;;;24.41;100.00;100921.88;5117405;28;20020;-76
2021/07/11 02:20:47;;;;;;;23.63;13.27;;;;;;;24.65;100.00;100912.09;5116871;28;20038;-77
2021/07/11 02:23:34;;;;;;;17.13;12.77;;;;;;;24.47;100.00;100918.78;5102172;28;20402;-77
2021/07/11 02:26:21;;;;;;;21.55;13.05;;;;;;;24.61;100.00;100913.28;5116792;28;20030;-77
2021/07/11 02:29:08;;;;;;;18.40;13.45;;;;;;;24.58;100.00;100918.84;5117767;28;20027;-77
2021/07/11 02:31:54;;;;;;;17.60;13.48;;;;;;;24.44;100.00;100924.34;5101984;28;20485;-77
2021/07/11 02:34:44;;;;;;;20.58;13.38;;;;;;;24.32;100.00;100930.56;5117697;28;20035;-77
2021/07/11 02:37:31;;;;;;;15.63;12.82;;;;;;;24.32;100.00;100930.56;5116769;28;20467;-77
2021/07/11 02:40:17;;;;;;;20.67;14.15;;;;;;;24.23;100.00;100940.09;5102964;28;20051;-77
2021/07/11 02:43:07;;;;;;;18.73;14.15;;;;;;;24.09;100.00;100939.34;5116751;28;20436;-77
2021/07/11 02:45:54;;;;;;;22.10;14.15;;;;;;;24.00;100.00;100943.53;5117204;28;20452;-77
2021/07/11 02:48:42;;;;;;;20.02;14.13;;;;;;;23.82;100.00;100931.38;5100665;28;20032;-77
2021/07/11 02:51:30;;;;;;;18.73;14.40;;;;;;;24.06;100.00;100935.06;5101880;28;20020;-77
2021/07/11 02:54:23;;;;;;;24.17;14.05;;;;;;;23.75;100.00;100934.59;5116673;28;20115;-76
2021/07/11 02:57:10;;;;;;;21.33;14.13;;;;;;;23.89;100.00;100931.81;5115612;28;20119;-76
2021/07/11 02:59:59;;;;;;;26.70;14.60;;;;;;;23.85;100.00;100931.16;5116072;28;20031;-76
2021/07/11 03:02:46;;;;;;;20.60;14.13;;;;;;;24.19;100.00;100945.78;5116207;28;20039;-76
2021/07/11 03:05:31;;;;;;;28.13;14.27;;;;;;;24.00;100.00;100935.50;5102149;28;20035;-76
2021/07/11 03:08:17;;;;;;;21.30;14.07;;;;;;;23.61;100.00;100938.19;5101315;28;20118;-76
2021/07/11 03:11:04;;;;;;;26.42;14.38;;;;;;;23.91;100.00;100951.31;5116093;28;20351;-77
2021/07/11 03:13:52;;;;;;;19.27;13.35;;;;;;;24.10;100.00;100954.47;5115302;28;20337;-76
2021/07/11 03:16:40;;;;;;;17.60;13.30;;;;;;;24.26;100.00;100955.94;5116603;28;20089;-77
2021/07/11 03:19:28;;;;;;;26.20;13.35;;;;;;;24.09;100.00;100950.91;5116797;27;20027;-76
2021/07/11 03:22:20;;;;;;;23.83;13.63;;;;;;;24.10;100.00;100957.16;5115778;28;20027;-76
2021/07/11 03:25:08;;;;;;;20.88;14.00;;;;;;;23.97;100.00;100954.44;5101544;28;20059;-77
2021/07/11 03:27:56;;;;;;;16.40;13.02;;;;;;;23.86;100.00;100958.78;5116187;28;20106;-77
2021/07/11 03:30:45;;;;;;;19.23;13.05;;;;;;;24.02;100.00;100959.50;5115168;28;20045;-77
2021/07/11 03:33:37;;;;;;;19.63;12.85;;;;;;;23.91;100.00;100957.53;5101759;28;20047;-77
2021/07/11 03:36:24;;;;;;;19.38;13.38;;;;;;;24.09;100.00;100966.97;5113593;28;20019;-77
2021/07/11 03:39:10;;;;;;;17.73;13.57;;;;;;;23.59;100.00;100952.63;5100708;28;20451;-77
2021/07/11 03:41:57;;;;;;;17.35;14.80;;;;;;;23.55;100.00;100964.50;5101738;28;20031;-77
2021/07/11 03:44:49;;;;;;;23.50;14.25;;;;;;;23.79;100.00;100963.69;5116005;28;20030;-77
2021/07/11 03:47:45;;;;;;;19.63;14.13;;;;;;;23.76;100.00;100963.91;5101595;28;20077;-77
2021/07/11 03:50:32;;;;;;;21.55;13.75;;;;;;;23.80;100.00;100961.88;5100872;28;20038;-77
2021/07/11 03:53:22;;;;;;;18.63;14.15;;;;;;;23.74;100.00;100964.97;5115723;28;20393;-77
2021/07/11 03:56:09;;;;;;;20.42;13.43;;;;;;;23.75;100.00;100964.84;5100607;28;20043;-77
2021/07/11 03:58:59;;;;;;;15.85;12.93;;;;;;;23.70;100.00;100972.34;5115301;28;20089;-77
2021/07/11 04:01:45;;;;;;;20.73;13.93;;;;;;;23.63;100.00;100973.75;5114886;28;20361;-78
2021/07/11 04:04:32;;;;;;;19.85;14.65;;;;;;;23.64;100.00;100970.09;5115593;28;20032;-77
2021/07/11 04:07:22;;;;;;;19.25;12.93;;;;;;;23.95;100.00;100982.28;5114431;28;20027;-77
2021/07/11 04:10:09;;;;;;;18.17;13.88;;;;;;;23.80;100.00;100970.78;5116421;27;20027;-77
2021/07/11 04:12:58;;;;;;;19.83;14.65;;;;;;;23.97;100.00;100983.88;5114571;28;20020;-77
2021/07/11 04:15:51;;;;;;;22.80;14.13;;;;;;;24.20;100.00;100982.31;5115784;28;20042;-77
2021/07/11 04:18:44;;;;;;;20.48;14.88;;;;;;;24.44;100.00;100985.94;5115101;28;20412;-77
2021/07/11 04:21:32;;;;;;;24.88;15.35;;;;;;;24.12;100.00;100984.66;5114384;28;20095;-77
2021/07/11 04:24:20;;;;;;;24.30;15.75;;;;;;;24.42;100.00;100982.50;5115561;28;20460;-77
2021/07/11 04:27:07;;;;;;;21.95;14.25;;;;;;;24.40;100.00;100995.16;5114222;28;20020;-77
2021/07/11 04:29:54;;;;;;;24.27;13.95;;;;;;;24.71;100.00;100997.44;5114531;28;20020;-77
2021/07/11 04:32:40;;;;;;;24.67;14.00;;;;;;;24.69;100.00;100997.53;5113888;28;20076;-77
2021/07/11 04:35:25;;;;;;;25.45;15.82;;;;;;;24.62;100.00;101006.09;5099996;28;20024;-77
2021/07/11 04:38:11;;;;;;;20.33;15.38;;;;;;;24.77;100.00;100995.16;5114040;28;20023;-77
2021/07/11 04:40:58;;;;;;;21.90;15.02;;;;;;;24.91;100.00;101003.06;5114118;28;20027;-77
2021/07/11 04:43:44;;;;;;;21.63;14.27;;;;;;;24.97;100.00;100997.28;5114104;28;20122;-77
2021/07/11 04:46:30;;;;;;;20.08;14.13;;;;;;;24.44;100.00;101002.03;5099424;28;20458;-77
2021/07/11 04:49:16;;;;;;;23.23;14.93;;;;;;;24.80;100.00;100996.78;5100947;28;20031;-77
2021/07/11 04:52:03;;;;;;;21.88;13.68;;;;;;;24.95;100.00;101001.88;5114867;28;20110;-77
2021/07/11 04:54:49;;;;;;;24.80;15.20;;;;;;;24.78;100.00;101004.06;5099799;28;20052;-77
2021/07/11 04:57:37;;;;;;;20.88;15.55;;;;;;;24.87;100.00;100998.06;5097652;28;20472;-77
2021/07/11 05:00:23;;;;;;;20.35;14.70;;;;;;;25.31;100.00;101001.06;5114095;28;20112;-77
2021/07/11 05:03:09;;;;;;;24.30;15.48;;;;;;;24.75;100.00;101004.28;5113863;28;20035;-76
2021/07/11 05:05:55;;;;;;;16.77;13.57;;;;;;;25.22;100.00;100993.66;5114892;28;20020;-76
2021/07/11 05:08:41;;;;;;;17.95;14.15;;;;;;;25.25;100.00;100988.06;5113755;28;20100;-76
2021/07/11 05:11:27;;;;;;;19.40;14.05;;;;;;;25.49;100.00;100988.97;5114390;28;20035;-76
2021/07/11 05:14:12;;;;;;;22.48;14.65;;;;;;;25.41;100.00;100997.59;5099583;28;20359;-76
2021/07/11 05:16:58;;;;;;;18.13;13.35;;;;;;;25.23;100.00;100990.00;5099500;28;20069;-76
2021/07/11 05:19:44;;;;;;;17.83;12.32;;;;;;;25.48;100.00;100987.25;5113297;28;20033;-77
2021/07/11 05:22:30;;;;;;;22.83;12.85;;;;;;;25.14;100.00;100985.31;5099955;28;20076;-77
2021/07/11 05:25:15;;;;;;;20.50;13.38;;;;;;;25.22;100.00;100993.66;5099869;28;20460;-76
2021/07/11 05:28:03;;;;;;;15.60;13.02;;;;;;;25.23;100.00;100993.53;5113804;28;20023;-76
2021/07/11 05:30:49;;;;;;;17.33;12.98;;;;;;;25.50;100.00;100991.53;5100422;28;20363;-76
2021/07/11 05:33:34;;;;;;;16.58;13.15;;;;;;;25.80;100.00;100991.88;5114314;28;20032;-76
2021/07/11 05:36:20;;;;;;;17.63;13.40;;;;;;;25.63;100.00;100994.16;5113486;28;20424;-76
2021/07/11 05:39:06;;;;;;;20.92;14.50;;;;;;;25.39;100.00;100996.00;5099560;28;20405;-76
2021/07/11 05:41:52;;;;;;;22.30;15.43;;;;;;;25.36;100.00;100985.47;5114519;28;20042;-76
2021/07/11 05:44:38;;;;;;;25.83;16.55;;;;;;;25.62;100.00;100989.75;5113443;28;20431;-77
2021/07/11 05:47:23;;;;;;;21.98;14.57;;;;;;;25.68;100.00;100997.34;5100108;28;20039;-77
2021/07/11 05:50:10;;;;;;;21.48;14.68;;;;;;;25.77;100.00;101000.19;5113805;28;20344;-77
2021/07/11 05:52:56;;;;;;;17.83;15.45;;;;;;;26.05;100.00;100999.84;5113454;28;20436;-76
2021/07/11 05:55:42;;;;;;;21.85;15.45;;;;;;;26.04;100.00;101002.66;5113731;28;20052;-76
2021/07/11 05:58:28;;;;;;;23.35;14.90;;;;;;;26.02;100.00;101002.75;5100663;28;20039;-76
2021/07/11 06:01:13;;;;;;;17.75;14.40;;;;;;;25.92;100.00;101001.69;5117621;28;20116;-77
2021/07/11 06:03:59;;;;;;;17.15;14.13;;;;;;;25.97;100.00;101001.41;5117472;28;20036;-77
2021/07/11 06:06:45;;;;;;;22.00;14.35;;;;;;;25.93;100.00;101002.56;5116866;28;20031;-77
2021/07/11 06:09:31;;;;;;;20.58;14.23;;;;;;;26.17;100.00;101000.72;5117469;28;20359;-76
2021/07/11 06:12:16;;;;;;;21.35;14.07;;;;;;;26.44;100.00;101002.09;5117556;28;20019;-77
2021/07/11 06:15:05;;;;;;;23.60;14.68;;;;;;;26.31;100.00;101004.03;5116877;28;20027;-76
2021/07/11 06:17:50;;;;;;;27.75;14.77;;;;;;;26.37;100.00;101002.72;5117721;28;20038;-77
2021/07/11 06:20:36;;;;;;;16.88;13.40;;;;;;;26.63;100.00;100994.34;5116474;28;20024;-77
2021/07/11 06:23:22;;;;;;;22.35;15.13;;;;;;;26.76;100.00;100999.59;5117705;28;20027;-77
2021/07/11 06:26:08;;;;;;;24.27;15.35;;;;;;;27.06;100.00;100998.00;5102760;28;20023;-77
2021/07/11 06:28:54;;;;;;;24.60;15.50;;;;;;;26.82;100.00;100988.34;5117274;28;20466;-77
2021/07/11 06:31:40;;;;;;;24.85;15.02;;;;;;;27.13;100.00;100998.34;5116614;28;20371;-76
2021/07/11 06:34:26;;;;;;;19.48;12.90;;;;;;;27.31;100.00;100996.84;5117541;28;20038;-77
2021/07/11 06:37:11;;;;;;;24.10;13.18;;;;;;;27.35;100.00;100992.94;5116610;28;20174;-77
2021/07/11 06:39:57;;;;;;;15.70;12.55;;;;;;;27.62;100.00;100997.84;5116578;28;20069;-77
2021/07/11 06:42:43;;;;;;;16.50;11.35;;;;;;;27.04;100.00;100997.25;5102770;28;20035;-78
2021/07/11 06:45:29;;;;;;;17.42;10.80;;;;;;;27.36;100.00;100994.63;5116740;28;20452;-76
2021/07/11 06:48:15;;;;;;;18.08;11.07;;;;;;;27.55;100.00;100996.69;5116388;28;20028;-77
2021/07/11 06:51:00;;;;;;;17.90;12.32;;;;;;;27.68;100.00;100997.34;5102745;28;20062;-78
2021/07/11 06:53:46;;;;;;;17.00;12.00;;;;;;;27.96;100.00;101003.00;5117224;28;20463;-78
2021/07/11 06:56:32;;;;;;;17.75;11.15;;;;;;;27.71;100.00;101000.63;5102349;28;20043;-77
2021/07/11 06:59:18;;;;;;;16.10;11.50;;;;;;;27.75;100.00;100993.13;5116040;28;20392;-78
2021/07/11 07:02:04;;;;;;;17.98;11.77;;;;;;;28.34;100.00;101000.56;5116133;28;20110;-78
2021/07/11 07:04:49;;;;;;;21.55;11.88;;;;;;;27.74;100.00;100994.13;5117673;27;20038;-78
2021/07/11 07:07:35;;;;;;;17.20;10.65;;;;;;;27.86;100.00;100995.81;5102137;28;20442;-77
2021/07/11 07:10:23;;;;;;;15.90;10.63;;;;;;;28.13;100.00;100990.78;5101074;28;20065;-78
2021/07/11 07:13:09;;;;;;;14.55;10.38;;;;;;;28.23;100.00;101000.66;5115466;28;20031;-77
2021/07/11 07:15:54;;;;;;;21.00;11.02;;;;;;;28.63;100.00;100996.22;5115983;28;20507;-77
2021/07/11 07:18:40;;;;;;;21.25;10.60;;;;;;;28.39;100.00;101002.84;5116108;28;20027;-77
2021/07/11 07:21:26;;;;;;;15.73;9.15;;;;;;;28.95;100.00;101006.84;5115945;28;20102;-77
2021/07/11 07:24:12;;;;;;;13.30;9.48;;;;;;;29.00;100.00;101008.19;5102288;28;20537;-77
2021/07/11 07:26:58;;;;;;;15.77;8.82;;;;;;;28.82;100.00;101014.34;5102478;27;20020;-76
2021/07/11 07:29:44;;;;;;;11.55;8.63;;;;;;;28.98;100.00;101009.28;5114527;28;20398;-77
2021/07/11 07:32:29;;;;;;;16.27;8.85;;;;;;;28.73;100.00;101024.06;5115401;28;20028;-77
2021/07/11 07:35:17;;;;;;;10.85;8.88;;;;;;;29.20;100.00;101009.09;5102986;27;20031;-77
2021/07/11 07:38:03;;;;;;;16.95;8.48;;;;;;;29.06;100.00;101013.03;5115338;28;20055;-77
2021/07/11 07:40:49;;;;;;;13.73;8.10;;;;;;;29.08;100.00;101016.44;5115750;28;20356;-77
2021/07/11 07:43:35;;;;;;;13.63;9.10;;;;;;;28.75;100.00;101022.13;5115867;28;20364;-77
2021/07/11 07:46:21;;;;;;;13.93;8.70;;;;;;;29.20;100.00;101017.19;5115074;28;20054;-77
2021/07/11 07:49:07;;;;;;;13.95;8.25;;;;;;;29.38;100.00;101013.69;5100548;28;20103;-77
2021/07/11 07:51:53;;;;;;;17.63;8.80;;;;;;;29.16;100.00;101022.00;5101435;28;20066;-76
2021/07/11 07:54:39;;;;;;;14.40;9.23;;;;;;;28.90;100.00;101025.28;5114936;28;20038;-77
2021/07/11 07:57:24;;;;;;;11.52;8.98;;;;;;;29.90;99.34;101020.59;5101608;28;20024;-76
2021/07/11 08:00:13;;;;;;;18.10;8.95;;;;;;;30.34;97.45;101015.44;5100891;28;20024;-76
2021/07/11 08:02:59;;;;;;;10.93;8.80;;;;;;;30.02;99.91;101011.34;5101011;28;20486;-77
2021/07/11 08:05:45;;;;;;;12.25;9.40;;;;;;;30.49;96.25;101015.81;5114728;28;20031;-77
2021/07/11 08:08:30;;;;;;;19.20;8.90;;;;;;;30.15;99.47;101015.50;5114480;28;20118;-77
2021/07/11 08:11:16;;;;;;;15.20;8.50;;;;;;;30.64;94.32;101014.38;5102181;28;20038;-77
2021/07/11 08:14:02;;;;;;;13.00;9.02;;;;;;;29.91;98.17;101012.34;5101127;28;20084;-77
2021/07/11 08:16:48;;;;;;;12.40;8.60;;;;;;;29.86;97.59;101006.50;5114988;28;20024;-77
2021/07/11 08:19:34;;;;;;;13.88;8.43;;;;;;;30.36;97.35;101004.47;5102012;27;20104;-77
2021/07/11 08:22:19;;;;;;;14.93;8.82;;;;;;;30.88;93.84;101004.78;5115619;27;20027;-77
2021/07/11 08:25:07;;;;;;;13.18;9.02;;;;;;;31.36;93.50;101007.22;5115051;28;20096;-77
2021/07/11 08:27:53;;;;;;;25.17;9.45;;;;;;;31.82;88.52;101006.22;5115030;28;20317;-77
2021/07/11 08:30:39;;;;;;;16.92;9.57;;;;;;;31.06;91.22;101013.78;5114677;28;20027;-77
2021/07/11 08:33:25;;;;;;;17.15;9.77;;;;;;;31.68;88.63;101006.72;5114651;28;20027;-77
2021/07/11 08:36:11;;;;;;;14.70;9.35;;;;;;;32.09;88.33;101004.25;5100978;28;20027;-77
2021/07/11 08:38:57;;;;;;;14.13;9.57;;;;;;;31.68;89.23;101001.28;5100817;28;20057;-77
2021/07/11 08:41:43;;;;;;;13.30;9.65;;;;;;;32.13;85.66;101002.06;5114304;28;20024;-77
2021/07/11 08:44:29;;;;;;;17.27;9.35;;;;;;;31.51;90.42;100996.72;5113770;28;20023;-77
2021/07/11 08:47:15;;;;;;;17.73;9.85;;;;;;;31.71;90.92;100992.84;5114679;28;20016;-77
2021/07/11 08:50:02;;;;;;;11.13;9.27;;;;;;;32.31;88.98;100992.06;5113481;28;20114;-77
2021/07/11 08:52:47;;;;;;;10.25;8.82;;;;;;;32.04;92.43;100990.31;5100877;28;20039;-77
2021/07/11 08:55:33;;;;;;;14.68;9.00;;;;;;;32.90;87.24;100983.97;5113722;28;20044;-77
2021/07/11 08:58:19;;;;;;;18.45;9.32;;;;;;;32.76;86.43;100984.53;5114204;28;20124;-77
2021/07/11 09:01:05;;;;;;;12.35;9.52;;;;;;;32.61;88.19;100983.41;5101249;28;20120;-77
2021/07/11 09:04:10;;;;;;;14.75;9.10;;;;;;;33.24;87.07;100976.59;5101414;28;20451;-78
2021/07/11 09:06:56;;;;;;;18.92;9.40;;;;;;;32.87;88.32;100982.41;5114017;28;20334;-77
2021/07/11 09:09:42;;;;;;;13.25;9.63;;;;;;;33.31;82.48;100975.75;5115153;28;20360;-77
2021/07/11 09:12:28;;;;;;;13.27;8.65;;;;;;;32.74;84.55;100981.16;5114236;28;20023;-77
2021/07/11 09:15:14;;;;;;;10.88;8.70;;;;;;;33.23;82.43;100972.19;5113558;28;20126;-77
2021/07/11 09:18:00;;;;;;;13.50;8.85;;;;;;;33.31;82.92;100974.94;5114682;28;20027;-77
2021/07/11 09:21:11;;;;;;;15.40;9.05;;;;;;;33.25;79.54;100976.44;5114050;28;20031;-78
2021/07/11 09:23:56;;;;;;;14.10;8.70;;;;;;;33.38;74.38;100975.97;5113552;28;20444;-77
2021/07/11 09:26:44;;;;;;;11.82;8.40;;;;;;;32.65;81.07;100971.22;5113657;28;20028;-77
2021/07/11 09:29:31;;;;;;;10.65;7.85;;;;;;;32.63;82.19;100966.00;5114961;28;20027;-77
2021/07/11 09:32:28;;;;;;;11.85;8.20;;;;;;;32.96;79.93;100967.88;5114554;28;20027;-77
2021/07/11 09:35:16;;;;;;;11.10;8.52;;;;;;;32.10;87.00;100967.16;5118293;28;20456;-77
2021/07/11 09:38:02;;;;;;;13.23;8.10;;;;;;;33.11;82.51;100965.38;5117759;28;20543;-77
2021/07/11 09:40:47;;;;;;;11.43;8.13;;;;;;;32.79;83.05;100965.22;5117133;28;20053;-77
2021/07/11 09:43:40;;;;;;;11.82;7.90;;;;;;;33.36;73.99;100954.44;5117891;28;20423;-77
2021/07/11 09:46:33;;;;;;;12.80;7.30;;;;;;;32.67;69.98;100970.09;5119010;27;20076;-77
2021/07/11 09:49:19;;;;;;;13.57;7.68;;;;;;;32.93;70.22;100964.59;5117428;28;20036;-78
2021/07/11 09:52:05;;;;;;;13.38;7.40;;;;;;;33.06;71.10;100963.13;5117626;28;20459;-78
2021/07/11 09:55:06;;;;;;;9.70;7.43;;;;;;;32.60;71.62;100960.88;5117825;28;20047;-77
2021/07/11 09:57:53;;;;;;;11.45;7.22;;;;;;;33.40;69.47;100958.53;5102742;28;20031;-77
2021/07/11 10:00:41;;;;;;;19.40;8.40;;;;;;;32.92;69.11;100955.63;5117205;28;20463;-78
2021/07/11 10:03:28;;;;;;;10.45;7.55;;;;;;;33.48;67.48;100954.97;5117761;28;20039;-78
2021/07/11 10:06:14;;;;;;;13.18;7.93;;;;;;;33.49;66.45;100948.50;5117725;28;20440;-76
2021/07/11 10:09:02;;;;;;;11.75;8.40;;;;;;;34.02;68.72;100951.59;5116939;28;20080;-78
2021/07/11 10:11:48;;;;;;;16.85;8.90;;;;;;;33.56;69.46;100954.97;5103438;28;20030;-78
2021/07/11 10:14:34;;;;;;;14.20;7.88;;;;;;;33.63;70.62;100947.84;5116115;28;20038;-76
2021/07/11 10:17:21;;;;;;;11.45;7.70;;;;;;;33.92;70.57;100942.78;5104130;28;20092;-76
2021/07/11 10:20:07;;;;;;;16.77;8.02;;;;;;;34.10;67.38;100947.00;5104018;27;20024;-77
2021/07/11 10:22:53;;;;;;;13.70;8.23;;;;;;;33.72;66.74;100939.53;5117761;28;20441;-77
2021/07/11 10:25:39;;;;;;;15.77;8.75;;;;;;;33.69;67.94;100939.00;5118309;27;20116;-77
2021/07/11 10:28:27;;;;;;;16.40;8.40;;;;;;;34.05;64.95;100932.22;5116818;28;20015;-77
2021/07/11 10:31:24;;;;;;;16.42;7.93;;;;;;;34.21;64.39;100937.63;5117208;28;20365;-77
2021/07/11 10:34:11;;;;;;;14.77;8.23;;;;;;;33.69;61.41;100933.56;5116529;28;20042;-77
2021/07/11 10:36:57;;;;;;;15.93;7.80;;;;;;;33.24;58.11;100928.56;5116589;28;20070;-77
2021/07/11 10:39:43;;;;;;;10.82;8.13;;;;;;;33.31;58.79;100926.84;5117165;28;20034;-77
2021/07/11 10:42:29;;;;;;;11.30;8.18;;;;;;;33.55;57.32;100920.66;5103630;27;20023;-77
2021/07/11 10:45:17;;;;;;;8.98;8.02;;;;;;;33.65;55.73;100924.03;5101874;28;20055;-77
2021/07/11 10:48:05;;;;;;;8.68;7.25;;;;;;;33.65;50.40;100916.75;5116405;28;20023;-76
2021/07/11 10:50:50;;;;;;;11.43;7.30;;;;;;;33.52;54.34;100907.41;5115921;28;20520;-77
2021/07/11 10:53:37;;;;;;;8.52;7.13;;;;;;;33.69;56.59;100906.38;5116009;28;20349;-76
2021/07/11 10:56:23;;;;;;;15.93;7.90;;;;;;;34.23;55.57;100889.34;5116763;28;20043;-76
2021/07/11 10:59:09;;;;;;;10.15;8.00;;;;;;;33.42;55.85;100895.84;5117052;28;20027;-76
2021/07/11 11:01:56;;;;;;;12.23;8.20;;;;;;;34.06;53.59;100891.25;5116320;28;20059;-77
2021/07/11 11:04:47;;;;;;;10.02;8.98;;;;;;;34.34;53.22;100891.72;5116667;28;20034;-76
2021/07/11 11:07:50;;;;;;;17.45;14.50;;;;;;;34.17;49.24;100880.00;5116609;28;20475;-77
2021/07/11 11:10:38;;;;;;;12.18;8.07;;;;;;;33.60;45.15;100872.94;5101453;28;20459;-77
2021/07/11 11:13:26;;;;;;;8.70;7.72;;;;;;;33.47;46.84;100869.03;5101774;28;20111;-77
2021/07/11 11:16:14;;;;;;;15.95;9.63;;;;;;;33.68;46.05;100866.63;5115807;28;20024;-78
2021/07/11 11:19:00;;;;;;;15.13;12.98;;;;;;;34.32;46.21;100866.56;5115825;28;20046;-78
2021/07/11 11:21:53;;;;;;;13.65;10.30;;;;;;;34.35;48.75;100863.50;5115678;28;20448;-78
2021/07/11 11:24:40;;;;;;;21.48;19.10;;;;;;;34.75;47.14;100855.13;5116588;28;20039;-78
2021/07/11 11:27:33;;;;;;;9.60;8.30;;;;;;;34.78;44.92;100850.19;5115426;28;20039;-78
2021/07/11 11:30:22;;;;;;;10.10;8.48;;;;;;;34.64;45.47;100834.59;5116982;28;20069;-78
2021/07/11 11:33:07;;;;;;;12.40;10.27;;;;;;;34.60;44.39;100835.97;5102071;28;20107;-78
2021/07/11 11:35:54;;;;;;;9.85;8.85;;;;;;;35.03;40.43;100827.25;5115232;28;20056;-78
2021/07/11 11:38:43;;;;;;;8.45;7.60;;;;;;;34.49;43.48;100814.63;5116253;28;20413;-78
2021/07/11 11:41:29;;;;;;;9.20;8.18;;;;;;;34.79;41.91;100821.06;5100706;28;20459;-78
2021/07/11 11:44:16;;;;;;;10.57;7.70;;;;;;;34.48;40.43;100817.50;5115033;28;20095;-78
2021/07/11 11:47:02;;;;;;;11.75;8.00;;;;;;;34.64;41.88;100810.09;5116958;28;20094;-78
2021/07/11 11:49:47;;;;;;;13.23;8.13;;;;;;;34.80;41.06;100804.56;5115185;28;20023;-78
2021/07/11 11:52:33;;;;;;;10.88;8.32;;;;;;;34.64;40.07;100804.63;5114985;28;20020;-78
2021/07/11 11:55:19;;;;;;;10.43;7.80;;;;;;;34.38;39.98;100800.53;5115422;28;20088;-77
2021/07/11 11:58:08;;;;;;;13.05;7.65;;;;;;;34.63;41.32;100804.81;5116545;28;20448;-77
2021/07/11 12:01:00;;;;;;;10.40;7.97;;;;;;;34.94;41.62;100802.97;5101227;28;20435;-77
2021/07/11 12:03:48;;;;;;;26.77;8.60;;;;;;;35.42;40.47;100804.47;5101728;27;20076;-78
2021/07/11 12:06:34;;;;;;;9.05;7.03;;;;;;;35.32;39.48;100810.19;5115736;28;20019;-78
2021/07/11 12:09:38;;;;;;;10.20;7.47;;;;;;;34.53;40.78;100802.34;5116174;27;20030;-77
2021/07/11 12:12:24;;;;;;;8.60;7.70;;;;;;;34.80;42.17;100803.75;5100412;28;20034;-77
2021/07/11 12:15:10;;;;;;;10.93;7.72;;;;;;;34.52;42.10;100810.69;5114748;28;20027;-77
2021/07/11 12:18:05;;;;;;;9.77;7.53;;;;;;;34.82;41.22;100807.97;5114772;28;20019;-78
2021/07/11 12:20:52;;;;;;;9.38;7.40;;;;;;;34.99;39.36;100812.28;5100004;28;20146;-77
2021/07/11 12:23:38;;;;;;;8.25;7.10;;;;;;;35.17;38.34;100818.28;5100007;28;20030;-77
2021/07/11 12:26:25;;;;;;;8.90;7.60;;;;;;;35.44;39.57;100811.44;5114078;28;20048;-77
2021/07/11 12:29:15;;;;;;;8.88;7.13;;;;;;;35.13;39.39;100803.34;5114995;28;20046;-77
2021/07/11 12:32:06;;;;;;;11.45;7.38;;;;;;;34.59;39.82;100796.16;5114419;28;20024;-78
2021/07/11 12:34:58;;;;;;;13.20;7.30;;;;;;;34.54;40.96;100795.88;5101044;28;20490;-78
2021/07/11 12:37:57;;;;;;;10.40;7.60;;;;;;;35.00;39.81;100788.63;5114864;28;20349;-77
2021/07/11 12:40:43;;;;;;;13.20;8.25;;;;;;;35.24;39.94;100789.25;5114801;28;20020;-78